LTBV/BXN METAR and TAF weather

Enter ICAO airport designator
Station Type Date Time Source
LTBV METAR 2018/09/17 11:50 UTC NOAA

LTBV 171150Z 24013KT 9999 FEW035 35/11 Q1011


Station Type Date Time Source
LTBV Decoded METAR 2018/09/17 11:50 UTC NOAA

Bodrum, Turkey (LTBV) 37-02N 027-25E 27M
Sep 17, 2018 - 07:50 AM EDT / 2018.09.17 1150 UTC
Wind: from the WSW (240 degrees) at 15 MPH (13 KT):0
Visibility: greater than 7 mile(s):0
Sky conditions: mostly clear
Temperature: 95 F (35 C)
Dew Point: 51 F (11 C)
Relative Humidity: 23%
Pressure (altimeter): 29.85 in. Hg (1011 hPa)
ob: LTBV 171150Z 24013KT 9999 FEW035 35/11 Q1011
cycle: 12

Station Type Date Time Source
LTBV TAF UTC NOAA

Error!


Example: see airport list